createdAt,value
2022-11-12T00:01:19.882Z,95798.75
2022-11-12T00:04:05.046Z,95807.84
2022-11-12T00:06:50.269Z,95802.56
2022-11-12T00:09:35.215Z,95812.34
2022-11-12T00:12:20.334Z,95804.97
2022-11-12T00:15:08.545Z,95807.00
2022-11-12T00:17:53.757Z,95793.34
2022-11-12T00:20:38.901Z,95790.44
2022-11-12T00:23:23.666Z,95789.06
2022-11-12T00:26:08.510Z,95789.84
2022-11-12T00:28:53.328Z,95783.91
2022-11-12T00:31:38.220Z,95787.47
2022-11-12T00:34:23.232Z,95790.06
2022-11-12T00:37:08.657Z,95794.06
2022-11-12T00:39:53.606Z,95800.47
2022-11-12T00:42:38.477Z,95793.13
2022-11-12T00:45:23.834Z,95785.63
2022-11-12T00:48:08.724Z,95787.84
2022-11-12T00:51:03.520Z,95792.22
2022-11-12T00:53:49.410Z,95790.78
2022-11-12T00:56:35.640Z,95790.13
2022-11-12T00:59:20.875Z,95776.44
2022-11-12T01:02:05.659Z,95788.03
2022-11-12T01:04:50.830Z,95790.56
2022-11-12T01:07:35.689Z,95788.91
2022-11-12T01:10:20.523Z,95797.78
2022-11-12T01:13:05.430Z,95785.66
2022-11-12T01:15:50.327Z,95774.53
2022-11-12T01:18:35.258Z,95781.72
2022-11-12T01:21:21.442Z,95783.72
2022-11-12T01:24:06.653Z,95777.78
2022-11-12T01:26:51.782Z,95775.41
2022-11-12T01:29:36.534Z,95776.06
2022-11-12T01:32:21.427Z,95774.69
2022-11-12T01:35:06.741Z,95768.41
2022-11-12T01:37:51.482Z,95761.66
2022-11-12T01:40:36.226Z,95759.72
2022-11-12T01:43:21.040Z,95759.34
2022-11-12T01:46:14.900Z,95757.06
2022-11-12T01:49:03.210Z,95759.78
2022-11-12T01:51:51.523Z,95760.03
2022-11-12T01:54:37.506Z,95753.81
2022-11-12T01:57:33.474Z,95755.84
2022-11-12T02:00:19.931Z,95756.63
2022-11-12T02:03:11.511Z,95743.50
2022-11-12T02:06:05.606Z,95736.78
2022-11-12T02:08:51.518Z,95742.69
2022-11-12T02:11:36.275Z,95744.34
2022-11-12T02:14:21.548Z,95743.00
2022-11-12T02:17:06.476Z,95750.75
2022-11-12T02:19:52.891Z,95750.75
2022-11-12T02:22:38.051Z,95752.34
2022-11-12T02:25:24.891Z,95744.78
2022-11-12T02:28:10.188Z,95749.47
2022-11-12T02:30:55.207Z,95748.22
2022-11-12T02:33:40.083Z,95743.72
2022-11-12T02:36:25.446Z,95749.47
2022-11-12T02:39:10.270Z,95752.19
2022-11-12T02:41:55.126Z,95743.19
2022-11-12T02:44:40.052Z,95741.53
2022-11-12T02:47:25.301Z,95736.16
2022-11-12T02:50:10.483Z,95733.34
2022-11-12T02:52:55.340Z,95729.84
2022-11-12T02:55:40.298Z,95725.13
2022-11-12T02:58:25.628Z,95724.78
2022-11-12T03:01:11.001Z,95726.44
2022-11-12T03:03:55.772Z,95731.81
2022-11-12T03:06:40.674Z,95743.59
2022-11-12T03:09:25.383Z,95742.66
2022-11-12T03:12:10.450Z,95740.72
2022-11-12T03:14:55.328Z,95731.41
2022-11-12T03:17:40.088Z,95730.19
2022-11-12T03:20:25.989Z,95734.31
2022-11-12T03:23:11.183Z,95735.34
2022-11-12T03:25:56.334Z,95734.19
2022-11-12T03:28:41.487Z,95728.22
2022-11-12T03:31:26.484Z,95726.88
2022-11-12T03:34:11.873Z,95727.66
2022-11-12T03:36:56.807Z,95730.69
2022-11-12T03:39:41.595Z,95731.69
2022-11-12T03:42:26.459Z,95737.84
2022-11-12T03:45:11.305Z,95728.75
2022-11-12T03:47:57.744Z,95729.97
2022-11-12T03:50:43.090Z,95727.97
2022-11-12T03:53:28.141Z,95727.97
2022-11-12T03:56:13.197Z,95735.63
2022-11-12T03:58:58.042Z,95735.22
2022-11-12T04:01:42.861Z,95734.97
2022-11-12T04:04:47.815Z,95732.75
2022-11-12T04:07:51.237Z,95742.19
2022-11-12T04:10:36.351Z,95739.19
2022-11-12T04:13:30.565Z,95739.13
2022-11-12T04:16:36.585Z,95735.44
2022-11-12T04:19:44.877Z,95737.41
2022-11-12T04:22:29.660Z,95739.53
2022-11-12T04:25:33.505Z,95740.53
2022-11-12T04:28:18.456Z,95730.50
2022-11-12T04:31:03.314Z,95737.69
2022-11-12T04:33:48.080Z,95739.13
2022-11-12T04:36:32.966Z,95743.72
2022-11-12T04:39:17.872Z,95736.53
2022-11-12T04:42:21.879Z,95738.69
2022-11-12T04:45:09.709Z,95737.47
2022-11-12T04:47:54.780Z,95736.69
2022-11-12T04:50:40.862Z,95733.88
2022-11-12T04:53:26.313Z,95728.94
2022-11-12T04:56:11.269Z,95742.56
2022-11-12T04:58:56.170Z,95734.16
2022-11-12T05:01:40.951Z,95734.94
2022-11-12T05:04:28.772Z,95731.13
2022-11-12T05:07:14.475Z,95739.25
2022-11-12T05:09:59.603Z,95739.56
2022-11-12T05:12:44.690Z,95734.75
2022-11-12T05:15:29.989Z,95734.75
2022-11-12T05:18:14.752Z,95739.50
2022-11-12T05:21:19.499Z,95748.25
2022-11-12T05:24:04.841Z,95747.13
2022-11-12T05:26:50.148Z,95743.38
2022-11-12T05:29:35.435Z,95748.00
2022-11-12T05:32:20.475Z,95751.56
2022-11-12T05:35:05.732Z,95750.00
2022-11-12T05:37:50.753Z,95755.63
2022-11-12T05:40:35.736Z,95747.88
2022-11-12T05:43:20.580Z,95750.31
2022-11-12T05:46:05.673Z,95752.75
2022-11-12T05:48:50.911Z,95746.56
2022-11-12T05:51:36.054Z,95740.41
2022-11-12T05:54:21.257Z,95748.59
2022-11-12T05:57:06.080Z,95752.97
2022-11-12T05:59:50.980Z,95753.81
2022-11-12T06:02:35.781Z,95755.06
2022-11-12T06:05:20.671Z,95752.47
2022-11-12T06:08:06.657Z,95744.59
2022-11-12T06:10:53.271Z,95753.69
2022-11-12T06:13:38.190Z,95755.13
2022-11-12T06:16:23.248Z,95767.84
2022-11-12T06:19:08.464Z,95767.47
2022-11-12T06:21:53.402Z,95760.81
2022-11-12T06:24:38.687Z,95756.44
2022-11-12T06:27:24.111Z,95754.47
2022-11-12T06:30:09.650Z,95753.28
2022-11-12T06:32:54.757Z,95751.28
2022-11-12T06:35:42.928Z,95751.41
2022-11-12T06:38:38.735Z,95748.41
2022-11-12T06:41:23.747Z,95754.69
2022-11-12T06:44:08.738Z,95756.41
2022-11-12T06:46:53.855Z,95752.59
2022-11-12T06:49:38.643Z,95749.38
2022-11-12T06:52:23.598Z,95762.13
2022-11-12T06:55:11.067Z,95757.63
2022-11-12T06:57:56.437Z,95750.19
2022-11-12T07:00:41.493Z,95750.56
2022-11-12T07:03:26.387Z,95748.97
2022-11-12T07:06:14.051Z,95758.63
2022-11-12T07:08:59.227Z,95755.19
2022-11-12T07:11:44.284Z,95762.50
2022-11-12T07:14:29.423Z,95761.72
2022-11-12T07:17:14.362Z,95768.03
2022-11-12T07:20:03.959Z,95757.69
2022-11-12T07:22:48.982Z,95763.66
2022-11-12T07:25:33.824Z,95769.25
2022-11-12T07:28:18.739Z,95759.34
2022-11-12T07:31:09.839Z,95755.78
2022-11-12T07:33:55.011Z,95760.94
2022-11-12T07:36:39.973Z,95755.06
2022-11-12T07:39:24.824Z,95757.44
2022-11-12T07:42:09.861Z,95755.63
2022-11-12T07:44:54.485Z,95760.78
2022-11-12T07:47:39.366Z,95763.53
2022-11-12T07:50:24.397Z,95765.22
2022-11-12T07:53:09.188Z,95762.44
2022-11-12T07:55:59.368Z,95760.41
2022-11-12T07:58:45.439Z,95758.69
2022-11-12T08:01:31.913Z,95762.44
2022-11-12T08:04:17.306Z,95762.78
2022-11-12T08:07:02.254Z,95759.63
2022-11-12T08:09:47.577Z,95766.25
2022-11-12T08:12:32.406Z,95765.66
2022-11-12T08:15:17.288Z,95761.66
2022-11-12T08:18:02.155Z,95764.22
2022-11-12T08:20:47.008Z,95765.66
2022-11-12T08:23:32.050Z,95759.25
2022-11-12T08:26:18.504Z,95759.00
2022-11-12T08:29:08.274Z,95761.84
2022-11-12T08:31:54.063Z,95750.28
2022-11-12T08:34:41.264Z,95756.28
2022-11-12T08:37:26.465Z,95761.78
2022-11-12T08:40:12.361Z,95760.38
2022-11-12T08:43:08.845Z,95760.16
2022-11-12T08:45:54.055Z,95759.50
2022-11-12T08:48:40.386Z,95764.69
2022-11-12T08:51:25.614Z,95767.28
2022-11-12T08:54:10.638Z,95763.25
2022-11-12T08:56:55.650Z,95767.31
2022-11-12T08:59:40.393Z,95760.25
2022-11-12T09:02:25.267Z,95760.03
2022-11-12T09:05:10.275Z,95758.13
2022-11-12T09:08:03.947Z,95758.38
2022-11-12T09:10:49.980Z,95761.88
2022-11-12T09:13:35.536Z,95760.97
2022-11-12T09:16:21.318Z,95769.53
2022-11-12T09:19:06.126Z,95771.91
2022-11-12T09:21:51.068Z,95764.13
2022-11-12T09:24:35.966Z,95764.59
2022-11-12T09:27:21.110Z,95762.66
2022-11-12T09:30:06.653Z,95760.75
2022-11-12T09:32:58.384Z,95749.81
2022-11-12T09:35:43.341Z,95749.03
2022-11-12T09:38:28.846Z,95754.88
2022-11-12T09:41:29.675Z,95752.84
2022-11-12T09:44:22.056Z,95755.44
2022-11-12T09:47:16.414Z,95754.97
2022-11-12T09:50:19.997Z,95751.47
2022-11-12T09:53:15.176Z,95760.81
2022-11-12T09:56:05.189Z,95746.28
2022-11-12T09:58:51.202Z,95746.81
2022-11-12T10:01:53.609Z,95749.72
2022-11-12T10:05:17.403Z,95757.22
2022-11-12T10:08:24.119Z,95753.63
2022-11-12T10:11:28.049Z,95743.59
2022-11-12T10:14:47.872Z,95746.75
2022-11-12T10:17:46.815Z,95747.97
2022-11-12T10:20:50.929Z,95737.28
2022-11-12T10:23:43.666Z,95739.50
2022-11-12T10:26:32.222Z,95738.59
2022-11-12T10:29:31.818Z,95732.53
2022-11-12T10:32:17.047Z,95732.44
2022-11-12T10:35:02.061Z,95734.03
2022-11-12T10:38:02.690Z,95734.63
2022-11-12T10:40:47.340Z,95736.19
2022-11-12T10:43:32.163Z,95722.75
2022-11-12T10:46:23.630Z,95720.69
2022-11-12T10:49:14.542Z,95728.22
2022-11-12T10:51:59.682Z,95728.56
2022-11-12T10:54:44.921Z,95724.47
2022-11-12T10:57:30.186Z,95722.97
2022-11-12T11:00:16.179Z,95721.03
2022-11-12T11:03:06.175Z,95713.78
2022-11-12T11:05:55.289Z,95715.56
2022-11-12T11:08:52.056Z,95712.44
2022-11-12T11:11:36.919Z,95708.25
2022-11-12T11:14:21.644Z,95704.31
2022-11-12T11:17:15.535Z,95715.13
2022-11-12T11:20:00.765Z,95708.59
2022-11-12T11:23:12.815Z,95705.75
2022-11-12T11:26:07.002Z,95704.97
2022-11-12T11:29:04.172Z,95705.66
2022-11-12T11:32:01.639Z,95704.81
2022-11-12T11:35:05.036Z,95703.47
2022-11-12T11:38:05.446Z,95709.66
2022-11-12T11:41:30.282Z,95705.97
2022-11-12T11:44:47.379Z,95707.47
2022-11-12T11:48:02.694Z,95690.00
2022-11-12T11:51:00.109Z,95693.69
2022-11-12T11:54:18.999Z,95687.78
2022-11-12T11:57:12.018Z,95692.63
2022-11-12T12:00:29.798Z,95691.13
2022-11-12T12:03:31.724Z,95685.94
2022-11-12T12:06:26.218Z,95679.41
2022-11-12T12:09:33.335Z,95688.53
2022-11-12T12:12:18.097Z,95674.22
2022-11-12T12:15:45.814Z,95671.22
2022-11-12T12:18:46.438Z,95663.31
2022-11-12T12:21:35.275Z,95666.03
2022-11-12T12:24:37.328Z,95665.50
2022-11-12T12:27:29.192Z,95660.56
2022-11-12T12:30:19.827Z,95656.72
2022-11-12T12:33:25.196Z,95651.59
2022-11-12T12:36:17.739Z,95660.69
2022-11-12T12:39:25.847Z,95658.03
2022-11-12T12:42:50.810Z,95651.47
2022-11-12T12:45:44.091Z,95651.47
2022-11-12T12:48:34.399Z,95661.31
2022-11-12T12:51:20.529Z,95651.94
2022-11-12T12:54:34.516Z,95639.97
2022-11-12T12:57:39.971Z,95642.56
2022-11-12T13:00:38.957Z,95633.81
2022-11-12T13:03:42.793Z,95633.47
2022-11-12T13:06:40.934Z,95627.63
2022-11-12T13:09:28.417Z,95631.06
2022-11-12T13:12:16.609Z,95623.03
2022-11-12T13:15:16.050Z,95625.94
2022-11-12T13:18:00.991Z,95630.91
2022-11-12T13:21:16.195Z,95627.25
2022-11-12T13:24:08.248Z,95622.84
2022-11-12T13:26:59.949Z,95616.06
2022-11-12T13:29:46.852Z,95611.66
2022-11-12T13:32:41.785Z,95619.66
2022-11-12T13:35:29.828Z,95615.19
2022-11-12T13:38:17.626Z,95614.69
2022-11-12T13:41:17.929Z,95617.06
2022-11-12T13:44:07.750Z,95620.91
2022-11-12T13:46:55.661Z,95626.59
2022-11-12T13:49:42.660Z,95625.75
2022-11-12T13:52:28.870Z,95624.13
2022-11-12T13:55:16.959Z,95625.56
2022-11-12T13:58:02.015Z,95624.47
2022-11-12T14:00:59.560Z,95618.50
2022-11-12T14:03:48.213Z,95618.66
2022-11-12T14:06:42.591Z,95620.94
2022-11-12T14:09:39.872Z,95617.47
2022-11-12T14:12:24.664Z,95618.53
2022-11-12T14:15:30.803Z,95612.78
2022-11-12T14:18:31.897Z,95605.72
2022-11-12T14:21:18.396Z,95608.56
2022-11-12T14:24:04.828Z,95609.56
2022-11-12T14:26:49.872Z,95603.28
2022-11-12T14:29:37.824Z,95606.34
2022-11-12T14:32:24.967Z,95597.50
2022-11-12T14:35:28.310Z,95597.06
2022-11-12T14:38:21.624Z,95590.28
2022-11-12T14:41:10.903Z,95591.31
2022-11-12T14:44:12.160Z,95577.22
2022-11-12T14:46:58.898Z,95587.00
2022-11-12T14:49:47.778Z,95579.69
2022-11-12T14:52:40.028Z,95579.63
2022-11-12T14:55:28.735Z,95584.97
2022-11-12T14:58:15.434Z,95574.75
2022-11-12T15:01:47.724Z,95577.28
2022-11-12T15:04:25.804Z,95577.19
2022-11-12T15:07:51.909Z,95572.97
2022-11-12T15:10:42.050Z,95559.28
2022-11-12T15:13:27.613Z,95569.91
2022-11-12T15:16:20.998Z,95571.84
2022-11-12T15:19:26.189Z,95569.41
2022-11-12T15:22:22.796Z,95560.00
2022-11-12T15:25:29.624Z,95558.88
2022-11-12T15:28:22.658Z,95563.97
2022-11-12T15:31:17.412Z,95560.84
2022-11-12T15:34:33.611Z,95560.50
2022-11-12T15:37:18.735Z,95548.47
2022-11-12T15:40:11.351Z,95551.00
2022-11-12T15:42:57.870Z,95558.44
2022-11-12T15:45:43.100Z,95547.44
2022-11-12T15:48:28.014Z,95546.91
2022-11-12T15:51:16.036Z,95549.38
2022-11-12T15:54:00.919Z,95542.09
2022-11-12T15:56:46.380Z,95546.78
2022-11-12T15:59:31.261Z,95540.59
2022-11-12T16:02:16.205Z,95540.38
2022-11-12T16:05:01.516Z,95542.66
2022-11-12T16:07:46.335Z,95543.09
2022-11-12T16:10:31.604Z,95541.22
2022-11-12T16:13:30.969Z,95546.06
2022-11-12T16:16:16.256Z,95541.34
2022-11-12T16:19:01.624Z,95536.97
2022-11-12T16:21:46.707Z,95523.69
2022-11-12T16:24:31.834Z,95529.75
2022-11-12T16:27:17.981Z,95532.88
2022-11-12T16:30:03.722Z,95531.53
2022-11-12T16:32:49.005Z,95537.28
2022-11-12T16:35:35.635Z,95533.25
2022-11-12T16:38:21.422Z,95527.75
2022-11-12T16:41:10.501Z,95526.63
2022-11-12T16:43:55.266Z,95524.50
2022-11-12T16:46:40.338Z,95528.13
2022-11-12T16:49:26.156Z,95523.09
2022-11-12T16:52:11.690Z,95520.16
2022-11-12T16:55:01.506Z,95523.44
2022-11-12T16:57:49.405Z,95529.28
2022-11-12T17:00:35.153Z,95528.53
2022-11-12T17:03:20.054Z,95521.06
2022-11-12T17:06:04.913Z,95519.59
2022-11-12T17:08:54.330Z,95518.38
2022-11-12T17:11:39.567Z,95521.66
2022-11-12T17:14:28.292Z,95516.94
2022-11-12T17:17:13.779Z,95511.41
2022-11-12T17:19:59.393Z,95520.53
2022-11-12T17:22:44.105Z,95508.38
2022-11-12T17:25:28.795Z,95513.75
2022-11-12T17:28:13.603Z,95518.84
2022-11-12T17:31:10.931Z,95512.25
2022-11-12T17:33:55.929Z,95513.38
2022-11-12T17:36:43.531Z,95508.66
2022-11-12T17:39:29.229Z,95516.34
2022-11-12T17:42:14.061Z,95512.41
2022-11-12T17:44:58.978Z,95512.41
2022-11-12T17:47:43.791Z,95508.94
2022-11-12T17:50:28.588Z,95505.44
2022-11-12T17:53:14.068Z,95502.75
2022-11-12T17:55:59.920Z,95514.66
2022-11-12T17:58:47.081Z,95514.31
2022-11-12T18:01:32.973Z,95508.59
2022-11-12T18:04:17.680Z,95503.88
2022-11-12T18:07:02.523Z,95497.25
2022-11-12T18:09:47.278Z,95497.00
2022-11-12T18:12:32.054Z,95502.44
2022-11-12T18:15:17.030Z,95510.72
2022-11-12T18:18:03.096Z,95498.16
2022-11-12T18:20:48.510Z,95500.63
2022-11-12T18:23:36.930Z,95496.72
2022-11-12T18:26:22.118Z,95498.13
2022-11-12T18:29:07.597Z,95495.53
2022-11-12T18:31:52.865Z,95489.59
2022-11-12T18:34:41.737Z,95484.78
2022-11-12T18:37:26.585Z,95489.97
2022-11-12T18:40:11.850Z,95488.94
2022-11-12T18:42:57.044Z,95474.66
2022-11-12T18:45:42.153Z,95482.00
2022-11-12T18:48:28.463Z,95483.34
2022-11-12T18:51:15.484Z,95466.25
2022-11-12T18:54:00.722Z,95463.31
2022-11-12T18:56:45.561Z,95470.84
2022-11-12T18:59:32.452Z,95457.38
2022-11-12T19:02:17.442Z,95463.91
2022-11-12T19:05:02.490Z,95463.66
2022-11-12T19:07:47.580Z,95467.59
2022-11-12T19:10:32.325Z,95457.69
2022-11-12T19:13:17.258Z,95454.91
2022-11-12T19:16:07.458Z,95455.09
2022-11-12T19:18:52.457Z,95449.16
2022-11-12T19:21:38.250Z,95450.06
2022-11-12T19:24:23.330Z,95453.88
2022-11-12T19:27:08.216Z,95449.91
2022-11-12T19:29:56.265Z,95447.47
2022-11-12T19:32:44.988Z,95452.75
2022-11-12T19:35:29.906Z,95464.22
2022-11-12T19:38:15.406Z,95451.19
2022-11-12T19:41:05.306Z,95452.53
2022-11-12T19:43:51.069Z,95441.53
2022-11-12T19:46:36.652Z,95447.59
2022-11-12T19:49:21.463Z,95445.91
2022-11-12T19:52:06.246Z,95438.50
2022-11-12T19:54:51.182Z,95443.66
2022-11-12T19:57:36.016Z,95435.34
2022-11-12T20:00:21.047Z,95435.56
2022-11-12T20:03:05.985Z,95439.06
2022-11-12T20:05:54.452Z,95430.59
2022-11-12T20:08:39.990Z,95437.56
2022-11-12T20:11:24.777Z,95437.00
2022-11-12T20:14:09.661Z,95433.88
2022-11-12T20:16:54.408Z,95426.00
2022-11-12T20:19:39.229Z,95420.94
2022-11-12T20:22:29.203Z,95425.88
2022-11-12T20:25:16.688Z,95416.13
2022-11-12T20:28:01.789Z,95422.09
2022-11-12T20:30:46.638Z,95425.41
2022-11-12T20:33:31.515Z,95416.13
2022-11-12T20:36:20.344Z,95410.38
2022-11-12T20:39:05.348Z,95416.13
2022-11-12T20:41:50.448Z,95406.25
2022-11-12T20:44:35.239Z,95415.78
2022-11-12T20:47:20.079Z,95409.38
2022-11-12T20:50:05.675Z,95411.41
2022-11-12T20:52:50.935Z,95415.53
2022-11-12T20:55:36.060Z,95404.66
2022-11-12T20:58:20.804Z,95407.25
2022-11-12T21:01:07.990Z,95404.66
2022-11-12T21:03:53.262Z,95406.91
2022-11-12T21:06:38.911Z,95405.69
2022-11-12T21:09:23.842Z,95410.41
2022-11-12T21:12:08.694Z,95407.63
2022-11-12T21:14:53.511Z,95396.72
2022-11-12T21:17:38.387Z,95391.53
2022-11-12T21:20:23.277Z,95390.91
2022-11-12T21:23:07.921Z,95392.78
2022-11-12T21:25:52.651Z,95385.59
2022-11-12T21:28:38.349Z,95383.16
2022-11-12T21:31:26.135Z,95377.22
2022-11-12T21:34:11.128Z,95378.31
2022-11-12T21:36:56.187Z,95366.75
2022-11-12T21:39:41.075Z,95366.31
2022-11-12T21:42:26.015Z,95367.09
2022-11-12T21:45:11.977Z,95366.31
2022-11-12T21:47:56.888Z,95358.25
2022-11-12T21:50:41.595Z,95351.72
2022-11-12T21:53:26.514Z,95353.19
2022-11-12T21:56:17.060Z,95344.44
2022-11-12T21:59:03.918Z,95350.25
2022-11-12T22:01:49.156Z,95345.09
2022-11-12T22:04:34.092Z,95326.38
2022-11-12T22:07:19.029Z,95328.25
2022-11-12T22:10:04.263Z,95330.16
2022-11-12T22:13:05.317Z,95334.41
2022-11-12T22:15:53.937Z,95320.50
2022-11-12T22:18:39.215Z,95327.00
2022-11-12T22:21:29.600Z,95326.56
2022-11-12T22:24:17.259Z,95328.34
2022-11-12T22:27:05.469Z,95326.22
2022-11-12T22:29:51.780Z,95326.66
2022-11-12T22:32:36.924Z,95323.53
2022-11-12T22:35:21.764Z,95321.97
2022-11-12T22:38:06.584Z,95316.78
2022-11-12T22:40:51.351Z,95311.06
2022-11-12T22:43:37.828Z,95311.53
2022-11-12T22:46:28.712Z,95309.84
2022-11-12T22:49:13.842Z,95302.34
2022-11-12T22:51:58.720Z,95309.09
2022-11-12T22:54:43.587Z,95312.22
2022-11-12T22:57:28.455Z,95309.53
2022-11-12T23:00:13.903Z,95311.78
2022-11-12T23:02:59.298Z,95309.53
2022-11-12T23:05:44.538Z,95308.88
2022-11-12T23:08:30.848Z,95306.16
2022-11-12T23:11:19.349Z,95309.06
2022-11-12T23:14:04.513Z,95315.44
2022-11-12T23:16:49.590Z,95313.88
2022-11-12T23:19:34.830Z,95307.16
2022-11-12T23:22:19.630Z,95304.38
2022-11-12T23:25:05.100Z,95296.38
2022-11-12T23:27:49.899Z,95297.84
2022-11-12T23:30:36.769Z,95287.88
2022-11-12T23:33:21.595Z,95284.63
2022-11-12T23:36:10.891Z,95285.66
2022-11-12T23:38:56.783Z,95279.34
2022-11-12T23:41:41.631Z,95273.66
2022-11-12T23:44:26.453Z,95274.88
2022-11-12T23:47:11.359Z,95275.63
2022-11-12T23:49:55.966Z,95255.94
2022-11-12T23:52:40.883Z,95260.75
2022-11-12T23:55:29.057Z,95265.13
2022-11-12T23:58:15.457Z,95255.59
